| time (UTC) | temp C | wind direction | speed KPH | gust KPH | rain 1hr cm | rain 24hr cm | rain mn cm | humidity % | barometer mb |
| 20260906075216 | 17 | 114 | 1.6 | 6.4 | 0.00 | 0.00 | 0.00 | 74 | 1026.1 |
| 20260906074706 | 17 | 191 | 3.2 | 6.4 | 0.00 | 0.00 | 0.00 | 75 | 1026.1 |
| 20260906074206 | 17 | 291 | 3.2 | 3.2 | 0.00 | 0.00 | 0.00 | 75 | 1026.2 |
| 20260906073656 | 17 | 158 | 4.8 | 4.8 | 0.00 | 0.00 | 0.00 | 77 | 1026.0 |
| 20260906073156 | 16 | 163 | 3.2 | 8.0 | 0.00 | 0.00 | 0.00 | 80 | 1026.2 |
| 20260906072656 | 16 | 181 | 3.2 | 6.4 | 0.00 | 0.00 | 0.00 | 80 | 1026.6 |
| 20260906072156 | 16 | 141 | 1.6 | 6.4 | 0.00 | 0.00 | 0.00 | 81 | 1026.3 |
| 20260906071647 | 16 | 122 | 3.2 | 8.0 | 0.00 | 0.00 | 0.00 | 82 | 1026.4 |
| 20260906071146 | 16 | 156 | 3.2 | 8.0 | 0.00 | 0.00 | 0.00 | 81 | 1026.4 |
| 20260906070646 | 15 | 161 | 6.4 | 6.4 | 0.00 | 0.00 | 0.00 | 84 | 1026.5 |
| 20260906070146 | 16 | 175 | 6.4 | 9.7 | 0.00 | 0.00 | 0.00 | 84 | 1026.6 |
| 20260906065646 | 15 | 171 | 9.7 | 11.3 | 0.00 | 0.00 | 0.00 | 85 | 1026.6 |
| 20260906065146 | 15 | 179 | 8.0 | 11.3 | 0.00 | 0.00 | 0.00 | 86 | 1026.7 |
| 20260906064637 | 15 | 145 | 6.4 | 9.7 | 0.00 | 0.00 | 0.00 | 86 | 1026.7 |
| 20260906064127 | 15 | 155 | 6.4 | 9.7 | 0.00 | 0.00 | 0.00 | 88 | 1026.9 |
| 20260906063617 | 15 | 177 | 8.0 | 9.7 | 0.00 | 0.00 | 0.00 | 87 | 1026.6 |
| 20260906063117 | 15 | 172 | 4.8 | 6.4 | 0.00 | 0.00 | 0.00 | 85 | 1026.7 |
| 20260906062608 | 15 | 142 | 3.2 | 4.8 | 0.00 | 0.00 | 0.00 | 87 | 1026.9 |
| 20260906062107 | 15 | 174 | 4.8 | 8.0 | 0.00 | 0.00 | 0.00 | 87 | 1026.5 |
| 20260906061608 | 15 | 175 | 3.2 | 4.8 | 0.00 | 0.00 | 0.00 | 86 | 1026.2 |
| 20260906061058 | 15 | 145 | 4.8 | 6.4 | 0.00 | 0.00 | 0.00 | 87 | 1026.5 |
| 20260906060557 | 14 | 159 | 3.2 | 4.8 | 0.00 | 0.00 | 0.00 | 88 | 1026.4 |
| 20260906060057 | 14 | 167 | 4.8 | 4.8 | 0.00 | 0.00 | 0.00 | 87 | 1026.4 |
| 20260906055557 | 14 | 160 | 3.2 | 4.8 | 0.00 | 0.00 | 0.00 | 87 | 1026.6 |
| 20260906055057 | 14 | 156 | 3.2 | 3.2 | 0.00 | 0.00 | 0.00 | 89 | 1026.3 |
| 20260906054547 | 13 | 135 | 1.6 | 3.2 | 0.00 | 0.00 | 0.00 | 90 | 1026.6 |
| 20260906054047 | 13 | 63 | 0.0 | 1.6 | 0.00 | 0.00 | 0.00 | 92 | 1026.6 |
| 20260906053547 | 12 | 143 | 0.0 | 1.6 | 0.00 | 0.00 | 0.00 | 93 | 1026.7 |
| 20260906053047 | 12 | 218 | 4.8 | 4.8 | 0.00 | 0.00 | 0.00 | 95 | 1026.4 |
| 20260906052547 | 12 | 246 | 0.0 | 0.0 | 0.00 | 0.00 | 0.00 | 95 | 1026.5 |
| 20260906052037 | 12 | 119 | 0.0 | 0.0 | 0.00 | 0.00 | 0.00 | 96 | 1026.4 |
| 20260906051537 | 12 | 273 | 0.0 | 3.2 | 0.00 | 0.00 | 0.00 | 95 | 1026.2 |
| 20260906051027 | 12 | 212 | 0.0 | 3.2 | 0.00 | 0.00 | 0.00 | 94 | 1026.2 |
| 20260906050517 | 12 | 227 | 0.0 | 1.6 | 0.00 | 0.00 | 0.00 | 94 | 1026.2 |
| 20260906050017 | 12 | 201 | 0.0 | 3.2 | 0.00 | 0.00 | 0.00 | 95 | 1026.2 |
| 20260906045517 | 12 | 123 | 1.6 | 3.2 | 0.00 | 0.00 | 0.00 | 95 | 1026.1 |
| 20260906045007 | 12 | 96 | 1.6 | 3.2 | 0.00 | 0.00 | 0.00 | 95 | 1026.0 |
| 20260906044458 | 12 | 164 | 0.0 | 3.2 | 0.00 | 0.00 | 0.00 | 95 | 1026.2 |
| 20260906043948 | 12 | 110 | 3.2 | 3.2 | 0.00 | 0.00 | 0.00 | 95 | 1026.1 |
| 20260906043448 | 12 | 110 | 4.8 | 4.8 | 0.00 | 0.00 | 0.00 | 95 | 1026.2 |
| 20260906042948 | 12 | 83 | 3.2 | 4.8 | 0.00 | 0.00 | 0.00 | 95 | 1025.8 |
| 20260906042448 | 12 | 95 | 3.2 | 3.2 | 0.00 | 0.00 | 0.00 | 96 | 1026.1 |
| 20260906041948 | 12 | 125 | 3.2 | 3.2 | 0.00 | 0.00 | 0.00 | 96 | 1026.1 |
| 20260906041448 | 12 | 150 | 1.6 | 3.2 | 0.00 | 0.00 | 0.00 | 95 | 1026.1 |
| 20260906040948 | 12 | 233 | 0.0 | 3.2 | 0.00 | 0.00 | 0.00 | 95 | 1026.1 |
| 20260906040448 | 12 | 127 | 1.6 | 3.2 | 0.00 | 0.00 | 0.00 | 95 | 1025.7 |
| 20260906035947 | 12 | 137 | 1.6 | 3.2 | 0.00 | 0.00 | 0.00 | 95 | 1025.7 |
| 20260906035447 | 12 | 45 | 1.6 | 3.2 | 0.00 | 0.08 | 0.00 | 94 | 1025.6 |
| 20260906034947 | 13 | 266 | 1.6 | 4.8 | 0.00 | 0.08 | 0.00 | 92 | 1025.8 |
| 20260906034437 | 13 | 133 | 3.2 | 4.8 | 0.00 | 0.08 | 0.00 | 93 | 1025.7 |
| 20260906033927 | 13 | 93 | 3.2 | 3.2 | 0.00 | 0.08 | 0.00 | 94 | 1025.7 |
| 20260906033427 | 12 | 94 | 1.6 | 3.2 | 0.00 | 0.08 | 0.00 | 94 | 1025.7 |
| 20260906032917 | 12 | 66 | 3.2 | 3.2 | 0.00 | 0.08 | 0.00 | 95 | 1025.7 |
| 20260906032407 | 12 | 115 | 1.6 | 3.2 | 0.00 | 0.08 | 0.00 | 94 | 1026.0 |
| 20260906031907 | 12 | 50 | 3.2 | 4.8 | 0.00 | 0.08 | 0.00 | 94 | 1025.9 |
| 20260906031407 | 12 | 32 | 0.0 | 1.6 | 0.00 | 0.08 | 0.00 | 93 | 1025.9 |
| 20260906030907 | 13 | 246 | 4.8 | 4.8 | 0.00 | 0.08 | 0.00 | 93 | 1025.6 |
| 20260906030407 | 13 | 94 | 0.0 | 3.2 | 0.00 | 0.08 | 0.00 | 92 | 1025.6 |
| 20260906025857 | 13 | 121 | 3.2 | 4.8 | 0.00 | 0.08 | 0.00 | 92 | 1025.5 |
| 20260906025357 | 13 | 93 | 3.2 | 4.8 | 0.00 | 0.08 | 0.00 | 93 | 1025.3 |
| 20260906024857 | 13 | 136 | 3.2 | 6.4 | 0.00 | 0.08 | 0.00 | 92 | 1025.5 |
| 20260906024347 | 13 | 94 | 3.2 | 3.2 | 0.00 | 0.08 | 0.00 | 92 | 1025.5 |
| 20260906023847 | 13 | 49 | 4.8 | 4.8 | 0.00 | 0.08 | 0.00 | 92 | 1025.5 |
| 20260906023347 | 13 | 130 | 4.8 | 6.4 | 0.00 | 0.08 | 0.00 | 92 | 1025.6 |
| 20260906022847 | 13 | 137 | 6.4 | 8.0 | 0.00 | 0.08 | 0.00 | 92 | 1025.3 |
| 20260906022347 | 13 | 155 | 6.4 | 8.0 | 0.00 | 0.08 | 0.00 | 92 | 1025.6 |
| 20260906021847 | 13 | 134 | 1.6 | 3.2 | 0.00 | 0.08 | 0.00 | 91 | 1025.7 |
| 20260906021337 | 13 | 138 | 3.2 | 4.8 | 0.00 | 0.08 | 0.00 | 91 | 1025.4 |
| 20260906020837 | 13 | 147 | 3.2 | 6.4 | 0.00 | 0.08 | 0.00 | 92 | 1025.4 |
| 20260906020337 | 13 | 144 | 4.8 | 4.8 | 0.00 | 0.08 | 0.00 | 92 | 1025.3 |
| 20260906015827 | 13 | 146 | 0.0 | 3.2 | 0.00 | 0.10 | 0.00 | 92 | 1025.3 |
| 20260906015317 | 13 | 158 | 1.6 | 6.4 | 0.00 | 0.10 | 0.00 | 92 | 1024.9 |
| 20260906014807 | 13 | 171 | 3.2 | 3.2 | 0.00 | 0.10 | 0.00 | 92 | 1025.3 |
| 20260906014257 | 13 | 44 | 0.0 | 3.2 | 0.00 | 0.10 | 0.00 | 92 | 1025.0 |
| 20260906013757 | 13 | 152 | 1.6 | 4.8 | 0.00 | 0.10 | 0.00 | 91 | 1024.9 |
| 20260906013257 | 14 | 212 | 1.6 | 4.8 | 0.00 | 0.10 | 0.00 | 91 | 1025.0 |
| 20260906012757 | 14 | 126 | 1.6 | 3.2 | 0.00 | 0.10 | 0.00 | 91 | 1025.0 |
| 20260906012257 | 14 | 112 | 1.6 | 1.6 | 0.00 | 0.10 | 0.00 | 90 | 1024.9 |
| 20260906011757 | 14 | 205 | 0.0 | 0.0 | 0.00 | 0.10 | 0.00 | 91 | 1024.9 |
| 20260906011257 | 14 | 168 | 3.2 | 4.8 | 0.00 | 0.10 | 0.00 | 91 | 1024.8 |
| 20260906010747 | 14 | 205 | 0.0 | 1.6 | 0.00 | 0.10 | 0.00 | 91 | 1024.3 |
| 20260906010247 | 14 | 191 | 0.0 | 3.2 | 0.00 | 0.10 | 0.00 | 91 | 1024.5 |
| 20260906005747 | 14 | 141 | 0.0 | 3.2 | 0.00 | 0.10 | 0.00 | 91 | 1024.5 |
| 20260906005247 | 14 | 161 | 0.0 | 3.2 | 0.00 | 0.10 | 0.00 | 91 | 1024.5 |
| 20260906004737 | 13 | 136 | 0.0 | 3.2 | 0.00 | 0.10 | 0.00 | 91 | 1024.6 |
| 20260906004237 | 13 | 150 | 3.2 | 4.8 | 0.00 | 0.10 | 0.00 | 92 | 1024.6 |
| 20260906003737 | 13 | 80 | 0.0 | 3.2 | 0.00 | 0.10 | 0.00 | 91 | 1024.7 |
| 20260906003237 | 14 | 247 | 3.2 | 3.2 | 0.00 | 0.10 | 0.00 | 90 | 1024.4 |
| 20260906002727 | 14 | 174 | 1.6 | 3.2 | 0.00 | 0.10 | 0.00 | 90 | 1024.3 |
| 20260906002227 | 14 | 181 | 3.2 | 3.2 | 0.00 | 0.10 | 0.00 | 90 | 1024.5 |
| 20260906001717 | 14 | 141 | 0.0 | 3.2 | 0.00 | 0.10 | 0.00 | 90 | 1024.5 |
| 20260906001217 | 14 | 117 | 3.2 | 4.8 | 0.00 | 0.10 | 0.00 | 90 | 1024.3 |
| 20260906000717 | 14 | 103 | 3.2 | 3.2 | 0.00 | 0.10 | 0.00 | 91 | 1024.3 |
| 20260906000219 | 14 | 185 | 1.6 | 4.8 | 0.00 | 0.10 | 0.00 | 90 | 1024.4 |
| 20260905235707 | 14 | 160 | 1.6 | 1.6 | 0.00 | 0.10 | 0.00 | 90 | 1024.6 |
| 20260905235207 | 14 | 40 | 0.0 | 1.6 | 0.00 | 0.10 | 0.00 | 90 | 1024.6 |
| 20260905234657 | 14 | 124 | 1.6 | 3.2 | 0.00 | 0.10 | 0.00 | 91 | 1024.5 |
| 20260905234157 | 14 | 106 | 0.0 | 3.2 | 0.00 | 0.10 | 0.00 | 91 | 1024.5 |
| 20260905233647 | 14 | 170 | 0.0 | 3.2 | 0.00 | 0.10 | 0.00 | 91 | 1024.6 |
| 20260905233147 | 15 | 205 | 4.8 | 4.8 | 0.00 | 0.10 | 0.00 | 89 | 1024.7 |
| 20260905232647 | 15 | 168 | 0.0 | 3.2 | 0.00 | 0.10 | 0.00 | 88 | 1024.7 |
| 20260905232148 | 15 | 116 | 1.6 | 3.2 | 0.00 | 0.10 | 0.00 | 88 | 1024.6 |
| 20260905231647 | 14 | 54 | 1.6 | 3.2 | 0.00 | 0.10 | 0.00 | 89 | 1024.7 |
| 20260905231138 | 14 | 93 | 3.2 | 3.2 | 0.00 | 0.10 | 0.00 | 90 | 1024.7 |
| 20260905230637 | 14 | 65 | 4.8 | 6.4 | 0.00 | 0.10 | 0.00 | 90 | 1024.9 |
| 20260905230137 | 14 | 92 | 3.2 | 4.8 | 0.00 | 0.10 | 0.00 | 90 | 1024.9 |
| 20260905225637 | 14 | 147 | 0.0 | 1.6 | 0.00 | 0.10 | 0.00 | 90 | 1024.9 |
| 20260905225137 | 15 | 133 | 0.0 | 4.8 | 0.00 | 0.10 | 0.00 | 89 | 1024.6 |
| 20260905224627 | 15 | 176 | 6.4 | 8.0 | 0.00 | 0.10 | 0.00 | 89 | 1024.9 |
| 20260905224117 | 15 | 169 | 4.8 | 6.4 | 0.00 | 0.10 | 0.00 | 89 | 1024.8 |
| 20260905223617 | 15 | 81 | 1.6 | 4.8 | 0.00 | 0.10 | 0.00 | 89 | 1024.8 |
| 20260905223117 | 15 | 349 | 1.6 | 6.4 | 0.00 | 0.10 | 0.00 | 89 | 1024.9 |
| 20260905222617 | 15 | 324 | 0.0 | 1.6 | 0.00 | 0.10 | 0.00 | 89 | 1025.0 |
| 20260905222117 | 15 | 44 | 0.0 | 1.6 | 0.00 | 0.10 | 0.00 | 89 | 1025.3 |
| 20260905221607 | 15 | 246 | 1.6 | 4.8 | 0.00 | 0.10 | 0.00 | 88 | 1025.2 |
| 20260905221107 | 15 | 165 | 6.4 | 8.0 | 0.00 | 0.10 | 0.00 | 88 | 1024.9 |
| 20260905220607 | 15 | 137 | 4.8 | 6.4 | 0.00 | 0.10 | 0.00 | 88 | 1024.9 |
| 20260905220107 | 15 | 176 | 3.2 | 3.2 | 0.00 | 0.10 | 0.00 | 88 | 1025.2 |
| 20260905215607 | 15 | 66 | 1.6 | 3.2 | 0.00 | 0.10 | 0.10 | 88 | 1025.0 |
| 20260905215107 | 15 | 32 | 1.6 | 3.2 | 0.00 | 0.10 | 0.10 | 88 | 1025.1 |
| 20260905214557 | 15 | 115 | 1.6 | 3.2 | 0.00 | 0.10 | 0.10 | 88 | 1025.2 |
| 20260905214057 | 15 | 154 | 4.8 | 4.8 | 0.00 | 0.10 | 0.10 | 88 | 1025.1 |
| 20260905213557 | 15 | 221 | 3.2 | 3.2 | 0.00 | 0.10 | 0.10 | 88 | 1024.9 |
| 20260905213057 | 15 | 80 | 0.0 | 3.2 | 0.00 | 0.10 | 0.10 | 88 | 1025.1 |
| 20260905212557 | 15 | 166 | 3.2 | 4.8 | 0.00 | 0.10 | 0.10 | 88 | 1025.2 |
| 20260905212057 | 15 | 157 | 0.0 | 3.2 | 0.00 | 0.10 | 0.10 | 87 | 1025.1 |
| 20260905211557 | 15 | 212 | 0.0 | 1.6 | 0.00 | 0.10 | 0.10 | 87 | 1024.9 |
| 20260905211047 | 15 | 130 | 3.2 | 3.2 | 0.00 | 0.10 | 0.10 | 86 | 1025.0 |
| 20260905210537 | 15 | 76 | 1.6 | 3.2 | 0.00 | 0.10 | 0.10 | 86 | 1024.9 |
| 20260905210037 | 15 | 39 | 0.0 | 3.2 | 0.00 | 0.10 | 0.10 | 87 | 1024.8 |
| 20260905205537 | 15 | 271 | 1.6 | 3.2 | 0.00 | 0.10 | 0.10 | 87 | 1024.8 |
| 20260905205037 | 15 | 219 | 4.8 | 4.8 | 0.00 | 0.10 | 0.10 | 86 | 1024.8 |
| 20260905204527 | 15 | 187 | 3.2 | 4.8 | 0.00 | 0.10 | 0.10 | 86 | 1024.8 |
| 20260905204017 | 15 | 117 | 1.6 | 3.2 | 0.00 | 0.10 | 0.10 | 86 | 1024.7 |
| 20260905203507 | 15 | 162 | 3.2 | 3.2 | 0.00 | 0.10 | 0.10 | 86 | 1024.8 |
| 20260905203007 | 15 | 256 | 0.0 | 3.2 | 0.00 | 0.10 | 0.10 | 86 | 1025.1 |
| 20260905202507 | 15 | 109 | 3.2 | 3.2 | 0.00 | 0.10 | 0.10 | 86 | 1024.9 |
| 20260905202007 | 15 | 76 | 1.6 | 3.2 | 0.00 | 0.10 | 0.10 | 86 | 1024.9 |
| 20260905201457 | 15 | 166 | 3.2 | 6.4 | 0.00 | 0.10 | 0.10 | 85 | 1024.9 |
| 20260905200957 | 16 | 258 | 3.2 | 3.2 | 0.00 | 0.10 | 0.10 | 83 | 1024.8 |
| 20260905200457 | 16 | 172 | 3.2 | 6.4 | 0.00 | 0.10 | 0.10 | 83 | 1024.7 |
| 20260905195948 | 16 | 135 | 4.8 | 4.8 | 0.00 | 0.10 | 0.10 | 82 | 1024.7 |
| 20260905195438 | 16 | 245 | 3.2 | 3.2 | 0.00 | 0.10 | 0.10 | 83 | 1024.8 |
| 20260905194938 | 16 | 76 | 1.6 | 3.2 | 0.00 | 0.10 | 0.10 | 84 | 1024.8 |
| 20260905194437 | 16 | 164 | 0.0 | 4.8 | 0.00 | 0.10 | 0.10 | 83 | 1024.5 |
| 20260905193937 | 16 | 149 | 1.6 | 4.8 | 0.00 | 0.10 | 0.10 | 83 | 1024.4 |
| 20260905193437 | 16 | 180 | 0.0 | 1.6 | 0.00 | 0.10 | 0.10 | 81 | 1024.0 |
| 20260905192927 | 16 | 72 | 1.6 | 4.8 | 0.00 | 0.10 | 0.10 | 81 | 1024.0 |
| 20260905192427 | 16 | 297 | 0.0 | 3.2 | 0.00 | 0.10 | 0.10 | 81 | 1024.1 |
| 20260905191927 | 16 | 63 | 6.4 | 8.0 | 0.00 | 0.10 | 0.10 | 83 | 1024.2 |
| 20260905191427 | 16 | 220 | 0.0 | 4.8 | 0.00 | 0.10 | 0.10 | 84 | 1024.1 |
| 20260905190927 | 16 | 340 | 0.0 | 4.8 | 0.00 | 0.10 | 0.10 | 84 | 1024.3 |
| 20260905190427 | 16 | 3 | 3.2 | 4.8 | 0.00 | 0.10 | 0.10 | 84 | 1024.1 |
| 20260905185918 | 16 | 110 | 0.0 | 3.2 | 0.00 | 0.10 | 0.10 | 82 | 1023.8 |
| 20260905185408 | 16 | 332 | 3.2 | 4.8 | 0.00 | 0.10 | 0.10 | 83 | 1023.9 |
| 20260905184908 | 16 | 304 | 3.2 | 6.4 | 0.00 | 0.10 | 0.10 | 84 | 1023.6 |
| 20260905184407 | 16 | 3 | 1.6 | 4.8 | 0.00 | 0.10 | 0.10 | 84 | 1023.6 |
| 20260905183857 | 16 | 287 | 1.6 | 3.2 | 0.00 | 0.10 | 0.10 | 83 | 1023.7 |
| 20260905183357 | 16 | 44 | 0.0 | 1.6 | 0.00 | 0.10 | 0.10 | 83 | 1023.7 |
| 20260905182857 | 16 | 255 | 4.8 | 6.4 | 0.00 | 0.10 | 0.10 | 83 | 1023.5 |
| 20260905182357 | 16 | 252 | 4.8 | 4.8 | 0.00 | 0.10 | 0.10 | 82 | 1023.6 |
| 20260905181857 | 16 | 313 | 6.4 | 6.4 | 0.00 | 0.10 | 0.10 | 81 | 1023.7 |
| 20260905181347 | 16 | 333 | 1.6 | 6.4 | 0.00 | 0.10 | 0.10 | 80 | 1023.8 |
| 20260905180847 | 16 | 328 | 3.2 | 6.4 | 0.00 | 0.10 | 0.10 | 78 | 1023.3 |
| 20260905180347 | 16 | 10 | 4.8 | 6.4 | 0.00 | 0.10 | 0.10 | 77 | 1023.7 |
| 20260905175847 | 16 | 29 | 6.4 | 6.4 | 0.00 | 0.10 | 0.10 | 77 | 1023.5 |
| 20260905175337 | 16 | 0 | 4.8 | 8.0 | 0.00 | 0.10 | 0.10 | 78 | 1023.4 |
| 20260905174837 | 16 | 0 | 6.4 | 8.0 | 0.00 | 0.10 | 0.10 | 79 | 1023.6 |
| 20260905174327 | 16 | 356 | 6.4 | 6.4 | 0.00 | 0.10 | 0.10 | 80 | 1023.6 |
| 20260905173827 | 16 | 276 | 6.4 | 6.4 | 0.00 | 0.10 | 0.10 | 80 | 1023.5 |
| 20260905173327 | 16 | 55 | 1.6 | 9.7 | 0.00 | 0.10 | 0.10 | 78 | 1023.4 |
| 20260905172827 | 17 | 327 | 4.8 | 6.4 | 0.00 | 0.10 | 0.10 | 75 | 1023.4 |
| 20260905172327 | 17 | 311 | 3.2 | 6.4 | 0.00 | 0.10 | 0.10 | 72 | 1023.1 |
| 20260905171827 | 17 | 19 | 3.2 | 6.4 | 0.00 | 0.10 | 0.10 | 70 | 1023.4 |
| 20260905171327 | 18 | 26 | 1.6 | 8.0 | 0.00 | 0.10 | 0.10 | 70 | 1023.2 |
| 20260905170827 | 17 | 356 | 3.2 | 9.7 | 0.00 | 0.10 | 0.10 | 68 | 1023.2 |
| 20260905170327 | 17 | 335 | 3.2 | 8.0 | 0.00 | 0.10 | 0.10 | 71 | 1023.3 |
| 20260905165817 | 18 | 16 | 4.8 | 8.0 | 0.00 | 0.10 | 0.10 | 71 | 1023.3 |
| 20260905165317 | 18 | 338 | 4.8 | 9.7 | 0.00 | 0.10 | 0.10 | 71 | 1023.3 |
| 20260905164808 | 18 | 359 | 4.8 | 8.0 | 0.00 | 0.10 | 0.10 | 66 | 1023.0 |
| 20260905164307 | 18 | 296 | 4.8 | 8.0 | 0.00 | 0.10 | 0.10 | 72 | 1023.1 |
| 20260905163807 | 18 | 283 | 6.4 | 8.0 | 0.00 | 0.10 | 0.10 | 70 | 1023.0 |
| 20260905163257 | 18 | 300 | 4.8 | 9.7 | 0.00 | 0.10 | 0.10 | 67 | 1023.0 |
| 20260905162757 | 18 | 274 | 6.4 | 9.7 | 0.00 | 0.10 | 0.10 | 69 | 1023.0 |
| 20260905162247 | 18 | 279 | 6.4 | 9.7 | 0.00 | 0.10 | 0.10 | 72 | 1022.8 |
| 20260905161747 | 17 | 346 | 3.2 | 9.7 | 0.00 | 0.10 | 0.10 | 71 | 1023.0 |
| 20260905161247 | 18 | 306 | 6.4 | 11.3 | 0.00 | 0.10 | 0.10 | 66 | 1022.8 |
| 20260905160747 | 18 | 332 | 6.4 | 12.9 | 0.00 | 0.10 | 0.10 | 68 | 1022.6 |
| 20260905160247 | 19 | 358 | 6.4 | 9.7 | 0.00 | 0.10 | 0.10 | 66 | 1022.4 |
| 20260905155737 | 18 | 281 | 6.4 | 11.3 | 0.00 | 0.10 | 0.10 | 66 | 1022.6 |
| 20260905155237 | 18 | 265 | 9.7 | 12.9 | 0.00 | 0.10 | 0.10 | 66 | 1022.7 |
| 20260905154728 | 19 | 289 | 9.7 | 14.5 | 0.00 | 0.10 | 0.10 | 64 | 1022.5 |
| 20260905154228 | 18 | 287 | 9.7 | 12.9 | 0.00 | 0.10 | 0.10 | 66 | 1022.7 |
| 20260905153728 | 18 | 300 | 11.3 | 14.5 | 0.00 | 0.10 | 0.10 | 67 | 1022.8 |
| 20260905153228 | 18 | 300 | 9.7 | 19.3 | 0.00 | 0.10 | 0.10 | 66 | 1022.9 |
| 20260905152728 | 18 | 323 | 1.6 | 16.1 | 0.00 | 0.10 | 0.10 | 66 | 1022.7 |
| 20260905152228 | 17 | 294 | 8.0 | 14.5 | 0.00 | 0.10 | 0.10 | 72 | 1023.1 |
| 20260905151718 | 17 | 352 | 9.7 | 17.7 | 0.00 | 0.10 | 0.10 | 74 | 1023.2 |
| 20260905151218 | 16 | 10 | 6.4 | 16.1 | 0.00 | 0.10 | 0.10 | 77 | 1023.3 |
| 20260905150708 | 16 | 294 | 4.8 | 14.5 | 0.00 | 0.10 | 0.10 | 77 | 1023.1 |
| 20260905150207 | 16 | 326 | 4.8 | 11.3 | 0.00 | 0.10 | 0.10 | 78 | 1023.2 |
| 20260905145657 | 17 | 335 | 12.9 | 17.7 | 0.00 | 0.10 | 0.10 | 74 | 1022.8 |
| 20260905145157 | 17 | 356 | 8.0 | 9.7 | 0.00 | 0.10 | 0.10 | 70 | 1023.0 |
| 20260905144648 | 18 | 286 | 20.9 | 20.9 | 0.00 | 0.10 | 0.10 | 69 | 1023.0 |
| 20260905144148 | 18 | 299 | 6.4 | 19.3 | 0.00 | 0.10 | 0.10 | 69 | 1022.6 |
| 20260905143648 | 18 | 20 | 16.1 | 29.0 | 0.00 | 0.10 | 0.10 | 68 | 1022.4 |
| 20260905143148 | 17 | 344 | 17.7 | 30.6 | 0.00 | 0.10 | 0.10 | 71 | 1022.1 |
| 20260905142648 | 17 | 311 | 27.4 | 32.2 | 0.00 | 0.10 | 0.10 | 73 | 1022.5 |
| 20260905142148 | 17 | 335 | 8.0 | 19.3 | 0.00 | 0.10 | 0.10 | 73 | 1022.3 |
| 20260905141638 | 18 | 331 | 20.9 | 24.1 | 0.00 | 0.10 | 0.10 | 68 | 1022.1 |
| 20260905141138 | 19 | 271 | 12.9 | 29.0 | 0.00 | 0.10 | 0.10 | 65 | 1022.2 |
| 20260905140628 | 20 | 289 | 17.7 | 32.2 | 0.00 | 0.10 | 0.10 | 64 | 1021.8 |
| 20260905140127 | 19 | 301 | 11.3 | 27.4 | 0.00 | 0.10 | 0.10 | 65 | 1021.6 |
| 20260905135627 | 20 | 315 | 12.9 | 25.7 | 0.00 | 0.10 | 0.10 | 63 | 1021.4 |
| 20260905135117 | 20 | 342 | 16.1 | 29.0 | 0.00 | 0.10 | 0.10 | 62 | 1021.0 |
| 20260905134617 | 20 | 340 | 12.9 | 24.1 | 0.00 | 0.10 | 0.10 | 63 | 1021.1 |
| 20260905134107 | 20 | 352 | 12.9 | 29.0 | 0.00 | 0.10 | 0.10 | 61 | 1020.7 |
| 20260905133607 | 20 | 4 | 12.9 | 25.7 | 0.00 | 0.10 | 0.10 | 62 | 1020.6 |
| 20260905133057 | 21 | 354 | 24.1 | 25.7 | 0.00 | 0.10 | 0.10 | 60 | 1020.7 |
| 20260905132557 | 20 | 327 | 12.9 | 30.6 | 0.00 | 0.10 | 0.10 | 60 | 1020.5 |
| 20260905132057 | 21 | 0 | 14.5 | 30.6 | 0.00 | 0.10 | 0.10 | 58 | 1020.2 |
| 20260905131557 | 21 | 340 | 14.5 | 32.2 | 0.00 | 0.10 | 0.10 | 57 | 1020.4 |
| 20260905131057 | 21 | 333 | 14.5 | 24.1 | 0.00 | 0.10 | 0.10 | 56 | 1019.9 |
| 20260905130557 | 22 | 4 | 20.9 | 27.4 | 0.00 | 0.10 | 0.10 | 53 | 1019.8 |
| 20260905130057 | 23 | 39 | 8.0 | 22.5 | 0.00 | 0.10 | 0.10 | 51 | 1020.1 |
| 20260905125557 | 23 | 339 | 11.3 | 14.5 | 0.00 | 0.10 | 0.10 | 50 | 1019.7 |
| 20260905125057 | 23 | 345 | 14.5 | 16.1 | 0.00 | 0.10 | 0.10 | 50 | 1019.5 |
| 20260905124548 | 23 | 330 | 17.7 | 22.5 | 0.00 | 0.10 | 0.10 | 51 | 1019.7 |
| 20260905124048 | 22 | 284 | 17.7 | 22.5 | 0.00 | 0.10 | 0.10 | 52 | 1019.6 |
| 20260905123548 | 23 | 306 | 14.5 | 25.7 | 0.00 | 0.10 | 0.10 | 51 | 1019.8 |
| 20260905123038 | 22 | 304 | 8.0 | 16.1 | 0.00 | 0.10 | 0.10 | 51 | 1019.9 |
| 20260905122538 | 22 | 3 | 11.3 | 17.7 | 0.00 | 0.10 | 0.10 | 50 | 1019.8 |
| 20260905122038 | 22 | 348 | 9.7 | 17.7 | 0.00 | 0.10 | 0.10 | 51 | 1019.9 |
| 20260905121538 | 22 | 337 | 6.4 | 17.7 | 0.00 | 0.10 | 0.10 | 50 | 1020.0 |
| 20260905121038 | 23 | 332 | 3.2 | 17.7 | 0.00 | 0.10 | 0.10 | 49 | 1019.9 |
| 20260905120538 | 23 | 66 | 8.0 | 17.7 | 0.00 | 0.10 | 0.10 | 47 | 1019.7 |
| 20260905120037 | 23 | 1 | 11.3 | 16.1 | 0.00 | 0.10 | 0.10 | 49 | 1019.8 |
| 20260905115527 | 23 | 9 | 8.0 | 9.7 | 0.00 | 0.10 | 0.10 | 48 | 1020.1 |
| 20260905115027 | 23 | 39 | 12.9 | 20.9 | 0.00 | 0.10 | 0.10 | 47 | 1019.9 |
| 20260905114518 | 23 | 351 | 9.7 | 11.3 | 0.00 | 0.10 | 0.10 | 51 | 1020.0 |
| 20260905114008 | 22 | 291 | 6.4 | 9.7 | 0.00 | 0.10 | 0.10 | 55 | 1020.3 |
| 20260905113458 | 21 | 335 | 8.0 | 9.7 | 0.00 | 0.10 | 0.10 | 57 | 1020.3 |
| 20260905112958 | 21 | 275 | 9.7 | 14.5 | 0.00 | 0.10 | 0.10 | 57 | 1020.5 |
| 20260905112448 | 22 | 261 | 9.7 | 11.3 | 0.00 | 0.10 | 0.10 | 54 | 1020.3 |
| 20260905111948 | 21 | 353 | 3.2 | 8.0 | 0.00 | 0.10 | 0.10 | 61 | 1020.6 |
| 20260905111448 | 21 | 275 | 3.2 | 6.4 | 0.00 | 0.10 | 0.10 | 62 | 1020.8 |
| 20260905110948 | 20 | 228 | 3.2 | 4.8 | 0.00 | 0.10 | 0.10 | 60 | 1020.7 |
| 20260905110448 | 20 | 301 | 4.8 | 9.7 | 0.00 | 0.10 | 0.10 | 67 | 1021.0 |
| 20260905105947 | 19 | 348 | 0.0 | 9.7 | 0.00 | 0.10 | 0.10 | 69 | 1021.2 |
| 20260905105447 | 20 | 301 | 1.6 | 6.4 | 0.00 | 0.10 | 0.10 | 67 | 1021.0 |
| 20260905104947 | 19 | 32 | 1.6 | 4.8 | 0.00 | 0.10 | 0.10 | 68 | 1021.1 |
| 20260905104438 | 19 | 261 | 1.6 | 4.8 | 0.00 | 0.10 | 0.10 | 67 | 1021.0 |
| 20260905103938 | 19 | 320 | 6.4 | 6.4 | 0.00 | 0.10 | 0.10 | 68 | 1020.9 |
| 20260905103438 | 18 | 311 | 6.4 | 8.0 | 0.00 | 0.10 | 0.10 | 70 | 1021.1 |
| 20260905102928 | 18 | 202 | 3.2 | 8.0 | 0.00 | 0.10 | 0.10 | 70 | 1021.1 |
| 20260905102418 | 18 | 239 | 3.2 | 4.8 | 0.00 | 0.10 | 0.10 | 68 | 1021.3 |
| 20260905101918 | 18 | 123 | 4.8 | 6.4 | 0.00 | 0.10 | 0.10 | 70 | 1021.3 |
| 20260905101418 | 17 | 167 | 4.8 | 8.0 | 0.00 | 0.10 | 0.10 | 71 | 1021.6 |
| 20260905100918 | 17 | 152 | 6.4 | 8.0 | 0.00 | 0.10 | 0.10 | 74 | 1021.5 |
| 20260905100418 | 17 | 180 | 3.2 | 8.0 | 0.00 | 0.10 | 0.10 | 73 | 1021.4 |
| 20260905095917 | 16 | 91 | 1.6 | 4.8 | 0.00 | 0.10 | 0.10 | 75 | 1021.6 |
| 20260905095417 | 16 | 211 | 4.8 | 6.4 | 0.00 | 0.10 | 0.10 | 75 | 1021.8 |
| 20260905094917 | 16 | 148 | 1.6 | 4.8 | 0.00 | 0.10 | 0.10 | 74 | 1021.9 |
| 20260905094408 | 16 | 123 | 3.2 | 4.8 | 0.00 | 0.10 | 0.10 | 76 | 1021.9 |
| 20260905093908 | 16 | 156 | 0.0 | 3.2 | 0.00 | 0.10 | 0.10 | 77 | 1022.1 |
| 20260905093408 | 16 | 178 | 4.8 | 8.0 | 0.00 | 0.10 | 0.10 | 78 | 1021.9 |
| 20260905092858 | 15 | 187 | 0.0 | 3.2 | 0.00 | 0.10 | 0.10 | 81 | 1022.2 |
| 20260905092358 | 16 | 248 | 6.4 | 6.4 | 0.00 | 0.10 | 0.10 | 79 | 1022.0 |
| 20260905091848 | 16 | 239 | 1.6 | 4.8 | 0.00 | 0.10 | 0.10 | 79 | 1022.0 |
| 20260905091338 | 16 | 302 | 3.2 | 4.8 | 0.00 | 0.10 | 0.10 | 80 | 1021.8 |
| 20260905090838 | 16 | 89 | 0.0 | 9.7 | 0.00 | 0.10 | 0.10 | 80 | 1021.9 |
| 20260905090337 | 16 | 15 | 3.2 | 6.4 | 0.03 | 0.10 | 0.10 | 79 | 1021.9 |
| 20260905085837 | 16 | 315 | 3.2 | 6.4 | 0.03 | 0.10 | 0.10 | 80 | 1022.0 |
| 20260905085337 | 16 | 257 | 8.0 | 9.7 | 0.08 | 0.10 | 0.10 | 80 | 1021.6 |
| 20260905084837 | 16 | 311 | 4.8 | 14.5 | 0.08 | 0.10 | 0.10 | 80 | 1021.7 |
| 20260905084328 | 16 | 293 | 9.7 | 9.7 | 0.08 | 0.10 | 0.10 | 80 | 1021.7 |
| 20260905083828 | 15 | 295 | 9.7 | 11.3 | 0.08 | 0.10 | 0.10 | 82 | 1021.4 |
| 20260905083328 | 15 | 295 | 12.9 | 12.9 | 0.08 | 0.10 | 0.10 | 82 | 1021.6 |
| 20260905082828 | 16 | 285 | 12.9 | 16.1 | 0.08 | 0.10 | 0.10 | 80 | 1021.2 |
| 20260905082328 | 16 | 313 | 9.7 | 14.5 | 0.08 | 0.10 | 0.10 | 79 | 1021.1 |
| 20260905081818 | 16 | 289 | 14.5 | 22.5 | 0.08 | 0.10 | 0.10 | 79 | 1021.1 |
| 20260905081318 | 16 | 287 | 12.9 | 24.1 | 0.08 | 0.10 | 0.10 | 81 | 1021.0 |
| 20260905080808 | 16 | 291 | 19.3 | 22.5 | 0.08 | 0.10 | 0.10 | 80 | 1021.0 |
| 20260905080307 | 15 | 326 | 12.9 | 19.3 | 0.05 | 0.08 | 0.08 | 82 | 1021.0 |
| 20260905075807 | 16 | 275 | 14.5 | 20.9 | 0.05 | 0.08 | 0.08 | 82 | 1020.8 |